sensor_id;sensor_type;location;lat;lon;timestamp;pressure;altitude;pressure_sealevel;temperature;humidity
84683;BME280;74905;44.124;18.116;2024-02-21T00:01:50;98054.78;;;5.92;69.89
84683;BME280;74905;44.124;18.116;2024-02-21T00:04:15;98057.84;;;5.96;70.25
84683;BME280;74905;44.124;18.116;2024-02-21T00:06:41;98055.25;;;5.98;70.43
84683;BME280;74905;44.124;18.116;2024-02-21T00:09:07;98060.22;;;6.00;70.11
84683;BME280;74905;44.124;18.116;2024-02-21T00:11:32;98053.41;;;6.01;70.52
84683;BME280;74905;44.124;18.116;2024-02-21T00:13:58;98047.06;;;6.08;70.73
84683;BME280;74905;44.124;18.116;2024-02-21T00:16:23;98041.28;;;6.13;70.87
84683;BME280;74905;44.124;18.116;2024-02-21T00:18:49;98039.97;;;6.14;70.55
84683;BME280;74905;44.124;18.116;2024-02-21T00:21:14;98042.16;;;6.16;71.83
84683;BME280;74905;44.124;18.116;2024-02-21T00:23:46;98037.00;;;6.03;72.28
84683;BME280;74905;44.124;18.116;2024-02-21T00:26:12;98026.97;;;6.07;72.13
84683;BME280;74905;44.124;18.116;2024-02-21T00:28:39;98034.31;;;6.12;72.91
84683;BME280;74905;44.124;18.116;2024-02-21T00:31:04;98035.91;;;6.15;73.07
84683;BME280;74905;44.124;18.116;2024-02-21T00:33:30;98026.94;;;6.24;73.04
84683;BME280;74905;44.124;18.116;2024-02-21T00:35:56;98023.38;;;6.31;73.23
84683;BME280;74905;44.124;18.116;2024-02-21T00:38:21;98021.44;;;6.24;72.35
84683;BME280;74905;44.124;18.116;2024-02-21T00:40:47;98027.31;;;6.11;73.04
84683;BME280;74905;44.124;18.116;2024-02-21T00:43:12;98022.00;;;6.06;73.96
84683;BME280;74905;44.124;18.116;2024-02-21T00:45:38;98015.34;;;6.09;74.17
84683;BME280;74905;44.124;18.116;2024-02-21T00:48:04;98012.19;;;5.95;72.79
84683;BME280;74905;44.124;18.116;2024-02-21T00:50:30;98015.22;;;5.89;74.40
84683;BME280;74905;44.124;18.116;2024-02-21T00:52:55;98017.41;;;5.91;75.50
84683;BME280;74905;44.124;18.116;2024-02-21T00:55:21;98008.47;;;6.00;76.15
84683;BME280;74905;44.124;18.116;2024-02-21T00:57:46;98009.56;;;6.14;74.85
84683;BME280;74905;44.124;18.116;2024-02-21T01:00:13;98008.84;;;6.14;75.75
84683;BME280;74905;44.124;18.116;2024-02-21T01:02:38;98010.06;;;6.20;76.08
84683;BME280;74905;44.124;18.116;2024-02-21T01:05:04;98009.63;;;6.24;73.99
84683;BME280;74905;44.124;18.116;2024-02-21T01:07:30;97990.34;;;6.33;73.86
84683;BME280;74905;44.124;18.116;2024-02-21T01:09:56;97993.28;;;6.35;72.85
84683;BME280;74905;44.124;18.116;2024-02-21T01:12:21;97982.22;;;6.35;72.62
84683;BME280;74905;44.124;18.116;2024-02-21T01:14:47;97981.94;;;6.31;72.43
84683;BME280;74905;44.124;18.116;2024-02-21T01:17:13;97981.53;;;6.18;74.18
84683;BME280;74905;44.124;18.116;2024-02-21T01:19:38;97981.63;;;6.10;74.76
84683;BME280;74905;44.124;18.116;2024-02-21T01:22:04;97978.63;;;5.98;75.36
84683;BME280;74905;44.124;18.116;2024-02-21T01:24:29;97969.31;;;5.94;74.76
84683;BME280;74905;44.124;18.116;2024-02-21T01:26:55;97974.09;;;5.93;76.36
84683;BME280;74905;44.124;18.116;2024-02-21T01:29:21;97977.44;;;5.92;75.15
84683;BME280;74905;44.124;18.116;2024-02-21T01:31:46;97979.09;;;5.87;74.58
84683;BME280;74905;44.124;18.116;2024-02-21T01:34:13;97976.91;;;5.86;76.00
84683;BME280;74905;44.124;18.116;2024-02-21T01:36:39;97975.47;;;5.85;75.91
84683;BME280;74905;44.124;18.116;2024-02-21T01:39:04;97974.50;;;5.73;76.59
84683;BME280;74905;44.124;18.116;2024-02-21T01:41:31;97969.78;;;5.66;76.52
84683;BME280;74905;44.124;18.116;2024-02-21T01:43:57;97970.53;;;5.66;76.92
84683;BME280;74905;44.124;18.116;2024-02-21T01:46:24;97973.69;;;5.63;77.00
84683;BME280;74905;44.124;18.116;2024-02-21T01:48:57;97969.63;;;5.64;77.27
84683;BME280;74905;44.124;18.116;2024-02-21T01:51:26;97964.50;;;5.60;77.53
84683;BME280;74905;44.124;18.116;2024-02-21T01:53:53;97968.88;;;5.63;77.44
84683;BME280;74905;44.124;18.116;2024-02-21T01:56:20;97964.66;;;5.62;77.53
84683;BME280;74905;44.124;18.116;2024-02-21T01:58:46;97959.06;;;5.70;76.75
84683;BME280;74905;44.124;18.116;2024-02-21T02:01:13;97958.09;;;5.75;76.66
84683;BME280;74905;44.124;18.116;2024-02-21T02:03:38;97962.56;;;5.70;76.73
84683;BME280;74905;44.124;18.116;2024-02-21T02:06:05;97964.41;;;5.68;76.58
84683;BME280;74905;44.124;18.116;2024-02-21T02:08:32;97960.84;;;5.75;75.91
84683;BME280;74905;44.124;18.116;2024-02-21T02:10:57;97959.88;;;5.80;75.58
84683;BME280;74905;44.124;18.116;2024-02-21T02:13:23;97957.94;;;5.73;76.22
84683;BME280;74905;44.124;18.116;2024-02-21T02:15:49;97961.09;;;5.69;76.96
84683;BME280;74905;44.124;18.116;2024-02-21T02:18:16;97966.69;;;5.61;76.81
84683;BME280;74905;44.124;18.116;2024-02-21T02:20:44;97966.03;;;5.53;77.68
84683;BME280;74905;44.124;18.116;2024-02-21T02:25:42;97968.47;;;5.49;77.43
84683;BME280;74905;44.124;18.116;2024-02-21T02:28:09;97978.03;;;5.48;77.73
84683;BME280;74905;44.124;18.116;2024-02-21T02:30:35;97977.81;;;5.54;77.55
84683;BME280;74905;44.124;18.116;2024-02-21T02:33:04;97975.38;;;5.58;77.69
84683;BME280;74905;44.124;18.116;2024-02-21T02:35:30;97974.81;;;5.59;77.93
84683;BME280;74905;44.124;18.116;2024-02-21T02:37:56;97980.16;;;5.57;77.54
84683;BME280;74905;44.124;18.116;2024-02-21T02:40:22;97985.38;;;5.53;77.61
84683;BME280;74905;44.124;18.116;2024-02-21T02:42:48;97982.59;;;5.53;77.59
84683;BME280;74905;44.124;18.116;2024-02-21T02:45:15;97980.84;;;5.66;77.64
84683;BME280;74905;44.124;18.116;2024-02-21T02:47:41;97971.56;;;5.71;77.65
84683;BME280;74905;44.124;18.116;2024-02-21T02:50:07;97973.50;;;5.78;77.56
84683;BME280;74905;44.124;18.116;2024-02-21T02:52:33;97971.81;;;5.82;76.46
84683;BME280;74905;44.124;18.116;2024-02-21T02:54:59;97977.09;;;5.88;77.00
84683;BME280;74905;44.124;18.116;2024-02-21T02:57:24;97972.84;;;5.87;77.13
84683;BME280;74905;44.124;18.116;2024-02-21T02:59:50;97974.75;;;5.84;76.61
84683;BME280;74905;44.124;18.116;2024-02-21T03:02:17;97975.69;;;5.79;76.97
84683;BME280;74905;44.124;18.116;2024-02-21T03:04:43;97974.66;;;5.75;77.93
84683;BME280;74905;44.124;18.116;2024-02-21T03:07:08;97982.59;;;5.71;77.74
84683;BME280;74905;44.124;18.116;2024-02-21T03:09:37;97980.91;;;5.58;78.25
84683;BME280;74905;44.124;18.116;2024-02-21T03:12:04;97979.50;;;5.49;77.79
84683;BME280;74905;44.124;18.116;2024-02-21T03:14:29;97994.28;;;5.44;78.85
84683;BME280;74905;44.124;18.116;2024-02-21T03:16:56;97987.38;;;5.36;78.89
84683;BME280;74905;44.124;18.116;2024-02-21T03:19:21;97988.69;;;5.35;79.31
84683;BME280;74905;44.124;18.116;2024-02-21T03:21:48;97990.31;;;5.38;79.61
84683;BME280;74905;44.124;18.116;2024-02-21T03:24:16;97990.47;;;5.57;79.05
84683;BME280;74905;44.124;18.116;2024-02-21T03:26:41;97991.88;;;5.66;78.38
84683;BME280;74905;44.124;18.116;2024-02-21T03:29:07;97989.50;;;5.62;77.86
84683;BME280;74905;44.124;18.116;2024-02-21T03:31:34;97990.25;;;5.63;77.79
84683;BME280;74905;44.124;18.116;2024-02-21T03:34:00;97994.13;;;5.59;78.04
84683;BME280;74905;44.124;18.116;2024-02-21T03:36:26;97991.06;;;5.55;78.47
84683;BME280;74905;44.124;18.116;2024-02-21T03:38:51;98001.94;;;5.53;79.54
84683;BME280;74905;44.124;18.116;2024-02-21T03:41:17;97996.41;;;5.53;79.17
84683;BME280;74905;44.124;18.116;2024-02-21T03:43:43;98007.69;;;5.48;79.07
84683;BME280;74905;44.124;18.116;2024-02-21T03:46:08;98013.44;;;5.42;79.28
84683;BME280;74905;44.124;18.116;2024-02-21T03:48:34;98012.06;;;5.34;79.74
84683;BME280;74905;44.124;18.116;2024-02-21T03:50:59;98011.72;;;5.30;80.35
84683;BME280;74905;44.124;18.116;2024-02-21T03:53:25;98007.09;;;5.32;80.03
84683;BME280;74905;44.124;18.116;2024-02-21T03:55:50;98013.91;;;5.31;80.32
84683;BME280;74905;44.124;18.116;2024-02-21T03:58:16;98010.25;;;5.29;80.29
84683;BME280;74905;44.124;18.116;2024-02-21T04:00:42;98009.13;;;5.32;80.22
84683;BME280;74905;44.124;18.116;2024-02-21T04:03:07;98012.63;;;5.32;79.83
84683;BME280;74905;44.124;18.116;2024-02-21T04:05:33;98020.34;;;5.34;80.32
84683;BME280;74905;44.124;18.116;2024-02-21T04:07:58;98004.44;;;5.42;79.42
84683;BME280;74905;44.124;18.116;2024-02-21T04:10:24;98012.31;;;5.45;78.75
84683;BME280;74905;44.124;18.116;2024-02-21T04:12:50;98012.88;;;5.44;78.32
84683;BME280;74905;44.124;18.116;2024-02-21T04:15:18;98014.91;;;5.43;78.80
84683;BME280;74905;44.124;18.116;2024-02-21T04:17:44;98026.25;;;5.47;79.27
84683;BME280;74905;44.124;18.116;2024-02-21T04:20:15;98020.75;;;5.47;78.59
84683;BME280;74905;44.124;18.116;2024-02-21T04:22:44;98023.38;;;5.45;78.10
84683;BME280;74905;44.124;18.116;2024-02-21T04:25:10;98022.69;;;5.37;78.34
84683;BME280;74905;44.124;18.116;2024-02-21T04:27:37;98024.88;;;5.39;79.30
84683;BME280;74905;44.124;18.116;2024-02-21T04:30:03;98028.22;;;5.37;79.08
84683;BME280;74905;44.124;18.116;2024-02-21T04:32:29;98027.16;;;5.33;77.88
84683;BME280;74905;44.124;18.116;2024-02-21T04:34:54;98034.19;;;5.26;79.57
84683;BME280;74905;44.124;18.116;2024-02-21T04:37:20;98035.97;;;5.31;78.84
84683;BME280;74905;44.124;18.116;2024-02-21T04:39:46;98036.34;;;5.35;78.98
84683;BME280;74905;44.124;18.116;2024-02-21T04:42:11;98044.03;;;5.37;78.40
84683;BME280;74905;44.124;18.116;2024-02-21T04:44:37;98045.50;;;5.38;78.38
84683;BME280;74905;44.124;18.116;2024-02-21T04:47:03;98044.38;;;5.41;77.56
84683;BME280;74905;44.124;18.116;2024-02-21T04:49:29;98050.44;;;5.39;76.76
84683;BME280;74905;44.124;18.116;2024-02-21T04:51:55;98049.72;;;5.39;77.43
84683;BME280;74905;44.124;18.116;2024-02-21T04:54:20;98049.50;;;5.44;78.08
84683;BME280;74905;44.124;18.116;2024-02-21T04:56:46;98056.03;;;5.56;77.23
84683;BME280;74905;44.124;18.116;2024-02-21T04:59:11;98050.66;;;5.58;76.75
84683;BME280;74905;44.124;18.116;2024-02-21T05:01:37;98054.13;;;5.59;76.70
84683;BME280;74905;44.124;18.116;2024-02-21T05:04:03;98050.25;;;5.62;76.74
84683;BME280;74905;44.124;18.116;2024-02-21T05:06:28;98044.38;;;5.58;76.65
84683;BME280;74905;44.124;18.116;2024-02-21T05:08:54;98052.28;;;5.61;76.56
84683;BME280;74905;44.124;18.116;2024-02-21T05:11:24;98042.72;;;5.63;77.20
84683;BME280;74905;44.124;18.116;2024-02-21T05:13:50;98048.78;;;5.61;77.54
84683;BME280;74905;44.124;18.116;2024-02-21T05:16:15;98038.09;;;5.65;77.88
84683;BME280;74905;44.124;18.116;2024-02-21T05:18:41;98034.59;;;5.65;77.29
84683;BME280;74905;44.124;18.116;2024-02-21T05:21:08;98033.53;;;5.60;77.58
84683;BME280;74905;44.124;18.116;2024-02-21T05:23:33;98029.72;;;5.55;77.88
84683;BME280;74905;44.124;18.116;2024-02-21T05:25:59;98036.34;;;5.52;78.52
84683;BME280;74905;44.124;18.116;2024-02-21T05:28:25;98031.47;;;5.43;78.41
84683;BME280;74905;44.124;18.116;2024-02-21T05:30:50;98031.75;;;5.30;79.37
84683;BME280;74905;44.124;18.116;2024-02-21T05:33:16;98032.38;;;5.21;79.86
84683;BME280;74905;44.124;18.116;2024-02-21T05:35:47;98050.84;;;5.11;80.30
84683;BME280;74905;44.124;18.116;2024-02-21T05:38:14;98042.63;;;5.03;80.41
84683;BME280;74905;44.124;18.116;2024-02-21T05:40:40;98048.69;;;5.09;81.24
84683;BME280;74905;44.124;18.116;2024-02-21T05:43:07;98038.31;;;5.17;80.51
84683;BME280;74905;44.124;18.116;2024-02-21T05:45:33;98047.09;;;5.23;79.83
84683;BME280;74905;44.124;18.116;2024-02-21T05:47:58;98052.44;;;5.21;79.39
84683;BME280;74905;44.124;18.116;2024-02-21T05:50:24;98057.41;;;5.23;79.59
84683;BME280;74905;44.124;18.116;2024-02-21T05:52:54;98058.41;;;5.35;79.71
84683;BME280;74905;44.124;18.116;2024-02-21T05:55:20;98052.44;;;5.46;78.30
84683;BME280;74905;44.124;18.116;2024-02-21T05:57:45;98047.56;;;5.54;79.12
84683;BME280;74905;44.124;18.116;2024-02-21T06:00:11;98054.22;;;5.51;79.10
84683;BME280;74905;44.124;18.116;2024-02-21T06:02:40;98064.44;;;5.58;78.10
84683;BME280;74905;44.124;18.116;2024-02-21T06:05:06;98068.50;;;5.57;78.09
84683;BME280;74905;44.124;18.116;2024-02-21T06:07:35;98077.38;;;5.56;77.90
84683;BME280;74905;44.124;18.116;2024-02-21T06:10:02;98083.34;;;5.45;77.95
84683;BME280;74905;44.124;18.116;2024-02-21T06:12:28;98071.03;;;5.46;78.97
84683;BME280;74905;44.124;18.116;2024-02-21T06:14:53;98073.44;;;5.42;78.89
84683;BME280;74905;44.124;18.116;2024-02-21T06:17:19;98078.72;;;5.47;79.02
84683;BME280;74905;44.124;18.116;2024-02-21T06:19:44;98078.09;;;5.56;78.04
84683;BME280;74905;44.124;18.116;2024-02-21T06:22:11;98080.97;;;5.66;77.23
84683;BME280;74905;44.124;18.116;2024-02-21T06:24:37;98082.03;;;5.71;76.21
84683;BME280;74905;44.124;18.116;2024-02-21T06:27:06;98095.25;;;5.72;77.09
84683;BME280;74905;44.124;18.116;2024-02-21T06:29:32;98092.16;;;5.68;77.21
84683;BME280;74905;44.124;18.116;2024-02-21T06:31:58;98096.94;;;5.68;77.24
84683;BME280;74905;44.124;18.116;2024-02-21T06:34:24;98092.56;;;5.65;77.49
84683;BME280;74905;44.124;18.116;2024-02-21T06:36:52;98094.53;;;5.72;78.51
84683;BME280;74905;44.124;18.116;2024-02-21T06:39:17;98096.66;;;5.81;77.95
84683;BME280;74905;44.124;18.116;2024-02-21T06:41:43;98096.81;;;5.83;77.28
84683;BME280;74905;44.124;18.116;2024-02-21T06:44:09;98098.63;;;5.88;77.14
84683;BME280;74905;44.124;18.116;2024-02-21T06:46:35;98098.44;;;5.86;77.02
84683;BME280;74905;44.124;18.116;2024-02-21T06:49:01;98106.97;;;5.80;76.41
84683;BME280;74905;44.124;18.116;2024-02-21T06:51:28;98097.59;;;5.76;77.10
84683;BME280;74905;44.124;18.116;2024-02-21T06:53:54;98097.47;;;5.74;77.21
84683;BME280;74905;44.124;18.116;2024-02-21T06:56:24;98109.63;;;5.71;77.62
84683;BME280;74905;44.124;18.116;2024-02-21T06:58:55;98110.72;;;5.75;77.56
84683;BME280;74905;44.124;18.116;2024-02-21T07:01:21;98105.91;;;5.76;77.60
84683;BME280;74905;44.124;18.116;2024-02-21T07:03:46;98114.88;;;5.84;77.24
84683;BME280;74905;44.124;18.116;2024-02-21T07:06:12;98119.03;;;5.92;77.63
84683;BME280;74905;44.124;18.116;2024-02-21T07:08:38;98120.53;;;5.86;77.34
84683;BME280;74905;44.124;18.116;2024-02-21T07:11:05;98115.81;;;5.79;76.90
84683;BME280;74905;44.124;18.116;2024-02-21T07:13:30;98116.16;;;5.83;77.81
84683;BME280;74905;44.124;18.116;2024-02-21T07:15:56;98122.38;;;5.91;78.03
84683;BME280;74905;44.124;18.116;2024-02-21T07:18:21;98121.56;;;5.98;78.03
84683;BME280;74905;44.124;18.116;2024-02-21T07:20:47;98120.19;;;6.07;76.38
84683;BME280;74905;44.124;18.116;2024-02-21T07:23:13;98121.66;;;6.08;77.06
84683;BME280;74905;44.124;18.116;2024-02-21T07:25:39;98114.81;;;6.26;76.18
84683;BME280;74905;44.124;18.116;2024-02-21T07:28:08;98114.75;;;6.33;76.80
84683;BME280;74905;44.124;18.116;2024-02-21T07:30:37;98118.81;;;6.50;74.52
84683;BME280;74905;44.124;18.116;2024-02-21T07:33:03;98114.22;;;6.62;74.98
84683;BME280;74905;44.124;18.116;2024-02-21T07:35:29;98118.28;;;6.61;75.06
84683;BME280;74905;44.124;18.116;2024-02-21T07:37:54;98117.88;;;6.64;75.86
84683;BME280;74905;44.124;18.116;2024-02-21T07:40:23;98130.00;;;6.69;75.76
84683;BME280;74905;44.124;18.116;2024-02-21T07:42:48;98121.84;;;6.71;75.63
84683;BME280;74905;44.124;18.116;2024-02-21T07:45:14;98121.19;;;6.80;75.15
84683;BME280;74905;44.124;18.116;2024-02-21T07:47:40;98123.88;;;6.88;74.10
84683;BME280;74905;44.124;18.116;2024-02-21T07:50:06;98129.81;;;6.84;74.79
84683;BME280;74905;44.124;18.116;2024-02-21T07:52:32;98128.97;;;6.91;74.84
84683;BME280;74905;44.124;18.116;2024-02-21T07:54:58;98126.69;;;6.97;74.54
84683;BME280;74905;44.124;18.116;2024-02-21T07:57:23;98121.06;;;7.05;73.75
84683;BME280;74905;44.124;18.116;2024-02-21T07:59:49;98127.31;;;7.05;74.04
84683;BME280;74905;44.124;18.116;2024-02-21T08:02:15;98139.00;;;7.14;73.51
84683;BME280;74905;44.124;18.116;2024-02-21T08:04:44;98122.09;;;7.09;73.16
84683;BME280;74905;44.124;18.116;2024-02-21T08:07:09;98126.69;;;6.97;73.76
84683;BME280;74905;44.124;18.116;2024-02-21T08:09:35;98124.66;;;6.98;74.05
84683;BME280;74905;44.124;18.116;2024-02-21T08:12:04;98123.03;;;6.95;74.37
84683;BME280;74905;44.124;18.116;2024-02-21T08:14:29;98123.34;;;6.99;73.96
84683;BME280;74905;44.124;18.116;2024-02-21T08:16:55;98118.91;;;7.13;73.55
84683;BME280;74905;44.124;18.116;2024-02-21T08:19:21;98127.31;;;7.05;73.66
84683;BME280;74905;44.124;18.116;2024-02-21T08:21:50;98131.22;;;7.02;73.83
84683;BME280;74905;44.124;18.116;2024-02-21T08:24:15;98124.00;;;7.07;73.83
84683;BME280;74905;44.124;18.116;2024-02-21T08:26:44;98119.81;;;7.16;72.55
84683;BME280;74905;44.124;18.116;2024-02-21T08:29:11;98132.63;;;7.21;71.95
84683;BME280;74905;44.124;18.116;2024-02-21T08:31:37;98128.44;;;7.29;72.62
84683;BME280;74905;44.124;18.116;2024-02-21T08:34:03;98116.97;;;7.33;72.10
84683;BME280;74905;44.124;18.116;2024-02-21T08:36:35;98127.75;;;7.38;71.11
84683;BME280;74905;44.124;18.116;2024-02-21T08:39:02;98123.13;;;7.41;71.42
84683;BME280;74905;44.124;18.116;2024-02-21T08:41:30;98120.19;;;7.39;72.16
84683;BME280;74905;44.124;18.116;2024-02-21T08:43:57;98129.25;;;7.49;70.40
84683;BME280;74905;44.124;18.116;2024-02-21T08:46:23;98122.88;;;7.56;69.89
84683;BME280;74905;44.124;18.116;2024-02-21T08:48:52;98126.25;;;7.55;68.47
84683;BME280;74905;44.124;18.116;2024-02-21T08:51:18;98132.81;;;7.59;68.55
84683;BME280;74905;44.124;18.116;2024-02-21T08:53:45;98125.78;;;7.58;67.47
84683;BME280;74905;44.124;18.116;2024-02-21T08:56:11;98128.88;;;7.62;66.25
84683;BME280;74905;44.124;18.116;2024-02-21T08:58:37;98132.22;;;7.61;66.38
84683;BME280;74905;44.124;18.116;2024-02-21T09:01:03;98136.50;;;7.71;67.05
84683;BME280;74905;44.124;18.116;2024-02-21T09:03:32;98143.06;;;7.76;65.45
84683;BME280;74905;44.124;18.116;2024-02-21T09:05:59;98138.25;;;7.86;65.84
84683;BME280;74905;44.124;18.116;2024-02-21T09:08:25;98134.03;;;7.85;64.20
84683;BME280;74905;44.124;18.116;2024-02-21T09:10:51;98136.13;;;8.04;63.69
84683;BME280;74905;44.124;18.116;2024-02-21T09:13:16;98132.78;;;8.25;63.77
84683;BME280;74905;44.124;18.116;2024-02-21T09:15:42;98137.91;;;8.28;63.92
84683;BME280;74905;44.124;18.116;2024-02-21T09:18:08;98136.34;;;8.44;63.55
84683;BME280;74905;44.124;18.116;2024-02-21T09:20:33;98132.66;;;8.61;61.95
84683;BME280;74905;44.124;18.116;2024-02-21T09:22:59;98136.63;;;8.58;62.48
84683;BME280;74905;44.124;18.116;2024-02-21T09:25:25;98132.09;;;8.63;61.69
84683;BME280;74905;44.124;18.116;2024-02-21T09:27:51;98139.53;;;8.60;61.90
84683;BME280;74905;44.124;18.116;2024-02-21T09:30:17;98126.28;;;8.58;62.66
84683;BME280;74905;44.124;18.116;2024-02-21T09:32:44;98132.41;;;8.57;62.06
84683;BME280;74905;44.124;18.116;2024-02-21T09:35:09;98128.00;;;8.54;62.14
84683;BME280;74905;44.124;18.116;2024-02-21T09:37:35;98135.03;;;8.45;62.55
84683;BME280;74905;44.124;18.116;2024-02-21T09:40:01;98138.22;;;8.32;61.85
84683;BME280;74905;44.124;18.116;2024-02-21T09:42:40;98143.59;;;8.30;62.11
84683;BME280;74905;44.124;18.116;2024-02-21T09:45:15;98149.44;;;8.25;62.53
84683;BME280;74905;44.124;18.116;2024-02-21T09:50:40;98143.19;;;8.43;62.01
84683;BME280;74905;44.124;18.116;2024-02-21T09:53:06;98145.09;;;8.41;62.08
84683;BME280;74905;44.124;18.116;2024-02-21T09:55:37;98140.25;;;8.41;62.14
84683;BME280;74905;44.124;18.116;2024-02-21T09:58:06;98144.81;;;8.56;61.88
84683;BME280;74905;44.124;18.116;2024-02-21T10:00:32;98140.56;;;8.65;62.42
84683;BME280;74905;44.124;18.116;2024-02-21T10:02:59;98141.13;;;8.73;61.69
84683;BME280;74905;44.124;18.116;2024-02-21T10:05:24;98140.84;;;8.78;62.26
84683;BME280;74905;44.124;18.116;2024-02-21T10:07:51;98138.50;;;8.75;61.16
84683;BME280;74905;44.124;18.116;2024-02-21T10:10:17;98133.69;;;8.75;61.41
84683;BME280;74905;44.124;18.116;2024-02-21T10:12:50;98140.41;;;8.72;60.62
84683;BME280;74905;44.124;18.116;2024-02-21T10:15:29;98135.75;;;8.75;60.49
84683;BME280;74905;44.124;18.116;2024-02-21T10:18:00;98134.09;;;8.91;60.85
84683;BME280;74905;44.124;18.116;2024-02-21T10:20:27;98130.13;;;9.04;60.98
84683;BME280;74905;44.124;18.116;2024-02-21T10:23:04;98122.06;;;9.17;60.14
84683;BME280;74905;44.124;18.116;2024-02-21T10:25:36;98117.50;;;9.31;59.34
84683;BME280;74905;44.124;18.116;2024-02-21T10:28:07;98113.88;;;9.19;59.83
84683;BME280;74905;44.124;18.116;2024-02-21T10:30:32;98120.25;;;9.31;59.81
84683;BME280;74905;44.124;18.116;2024-02-21T10:32:58;98118.88;;;9.52;59.21
84683;BME280;74905;44.124;18.116;2024-02-21T10:35:32;98119.72;;;9.54;58.69
84683;BME280;74905;44.124;18.116;2024-02-21T10:37:59;98123.38;;;9.57;58.30
84683;BME280;74905;44.124;18.116;2024-02-21T10:40:31;98109.34;;;9.55;58.41
84683;BME280;74905;44.124;18.116;2024-02-21T10:43:00;98106.75;;;9.78;58.17
84683;BME280;74905;44.124;18.116;2024-02-21T10:45:52;98099.88;;;10.22;55.69
84683;BME280;74905;44.124;18.116;2024-02-21T10:48:23;98095.75;;;10.77;54.68
84683;BME280;74905;44.124;18.116;2024-02-21T10:51:02;98084.19;;;11.15;54.81
84683;BME280;74905;44.124;18.116;2024-02-21T10:54:13;98083.47;;;11.62;51.65
84683;BME280;74905;44.124;18.116;2024-02-21T10:56:43;98066.81;;;12.10;50.79
84683;BME280;74905;44.124;18.116;2024-02-21T10:59:08;98065.75;;;12.41;50.10
84683;BME280;74905;44.124;18.116;2024-02-21T11:01:34;98050.69;;;13.10;47.05
84683;BME280;74905;44.124;18.116;2024-02-21T11:04:06;98053.09;;;13.43;47.21
84683;BME280;74905;44.124;18.116;2024-02-21T11:06:36;98045.72;;;14.47;45.24
84683;BME280;74905;44.124;18.116;2024-02-21T11:09:07;98041.47;;;15.39;42.83
84683;BME280;74905;44.124;18.116;2024-02-21T11:11:34;98031.38;;;16.32;40.05
84683;BME280;74905;44.124;18.116;2024-02-21T11:14:10;98030.22;;;16.92;38.44
84683;BME280;74905;44.124;18.116;2024-02-21T11:16:48;98018.72;;;17.04;35.87
84683;BME280;74905;44.124;18.116;2024-02-21T11:19:27;98013.13;;;17.43;35.97
84683;BME280;74905;44.124;18.116;2024-02-21T11:21:55;98004.16;;;17.29;35.04
84683;BME280;74905;44.124;18.116;2024-02-21T11:24:31;97999.69;;;17.02;35.76
84683;BME280;74905;44.124;18.116;2024-02-21T11:27:14;97998.31;;;17.23;35.65
84683;BME280;74905;44.124;18.116;2024-02-21T11:29:55;98004.31;;;16.58;36.57
84683;BME280;74905;44.124;18.116;2024-02-21T11:32:22;97994.66;;;16.81;35.56
84683;BME280;74905;44.124;18.116;2024-02-21T11:35:01;97990.75;;;17.28;34.77
84683;BME280;74905;44.124;18.116;2024-02-21T11:37:31;97987.56;;;17.57;34.31
84683;BME280;74905;44.124;18.116;2024-02-21T11:40:02;97988.16;;;17.34;34.10
84683;BME280;74905;44.124;18.116;2024-02-21T11:42:30;97970.00;;;17.17;34.06
84683;BME280;74905;44.124;18.116;2024-02-21T11:44:56;97976.94;;;17.75;33.37
84683;BME280;74905;44.124;18.116;2024-02-21T11:47:23;97967.84;;;17.77;33.01
84683;BME280;74905;44.124;18.116;2024-02-21T11:49:49;97965.00;;;18.42;32.27
84683;BME280;74905;44.124;18.116;2024-02-21T11:52:16;97964.63;;;19.00;30.97
84683;BME280;74905;44.124;18.116;2024-02-21T11:54:44;97964.09;;;18.36;31.66
84683;BME280;74905;44.124;18.116;2024-02-21T11:57:10;97964.16;;;18.59;32.51
84683;BME280;74905;44.124;18.116;2024-02-21T11:59:40;97961.69;;;18.26;32.30
84683;BME280;74905;44.124;18.116;2024-02-21T12:02:06;97956.88;;;18.52;31.54
84683;BME280;74905;44.124;18.116;2024-02-21T12:04:32;97949.38;;;18.37;31.80
84683;BME280;74905;44.124;18.116;2024-02-21T12:06:58;97940.28;;;17.95;32.55
84683;BME280;74905;44.124;18.116;2024-02-21T12:09:25;97940.19;;;18.58;32.13
84683;BME280;74905;44.124;18.116;2024-02-21T12:12:02;97939.13;;;18.02;32.78
84683;BME280;74905;44.124;18.116;2024-02-21T12:14:32;97938.31;;;18.21;31.72
84683;BME280;74905;44.124;18.116;2024-02-21T12:17:02;97927.81;;;18.24;31.86
84683;BME280;74905;44.124;18.116;2024-02-21T12:19:31;97913.03;;;18.95;30.83
84683;BME280;74905;44.124;18.116;2024-02-21T12:21:59;97913.06;;;19.77;29.72
84683;BME280;74905;44.124;18.116;2024-02-21T12:24:26;97906.72;;;20.06;29.34
84683;BME280;74905;44.124;18.116;2024-02-21T12:26:53;97911.34;;;20.89;27.45
84683;BME280;74905;44.124;18.116;2024-02-21T12:29:22;97899.28;;;21.21;27.69
84683;BME280;74905;44.124;18.116;2024-02-21T12:31:50;97893.31;;;20.36;28.78
84683;BME280;74905;44.124;18.116;2024-02-21T12:34:16;97898.91;;;20.68;27.95
84683;BME280;74905;44.124;18.116;2024-02-21T12:36:45;97897.44;;;19.74;30.32
84683;BME280;74905;44.124;18.116;2024-02-21T12:39:12;97883.19;;;20.27;30.11
84683;BME280;74905;44.124;18.116;2024-02-21T12:41:38;97878.81;;;20.88;28.46
84683;BME280;74905;44.124;18.116;2024-02-21T12:44:05;97871.03;;;21.25;27.43
84683;BME280;74905;44.124;18.116;2024-02-21T12:46:34;97867.97;;;20.42;27.98
84683;BME280;74905;44.124;18.116;2024-02-21T12:49:02;97868.13;;;19.87;28.86
84683;BME280;74905;44.124;18.116;2024-02-21T12:51:28;97867.72;;;19.15;30.20
84683;BME280;74905;44.124;18.116;2024-02-21T12:53:55;97857.47;;;19.55;29.89
84683;BME280;74905;44.124;18.116;2024-02-21T12:56:21;97860.19;;;19.79;28.77
84683;BME280;74905;44.124;18.116;2024-02-21T12:58:46;97856.34;;;20.28;28.19
84683;BME280;74905;44.124;18.116;2024-02-21T13:01:12;97848.56;;;20.97;27.33
84683;BME280;74905;44.124;18.116;2024-02-21T13:03:38;97843.75;;;21.05;27.30